• Join FlightAware (Why Join?)
  • Login
  • US Flag 
03:11AM EDT


 

Airport Tracker/Info


-or-


 

Live Flight TrackerFlight Track Log ✈ CES2389 ✈ 09-May-2013 ✈ ZSOF / HFE - ZLXY / XIY

Flight Track Log - Related Links

Times and Time Zones

All times are in EDT time to prevent confusion due to time zone crossing. See the CES2389 flight status page for this flight to view local times or setup timezone preferences in your user account.

Time Position Orientation Groundspeed Altitude Reporting Facility
EDT Latitude Longitude Course Direction KTS MPH feet Rate Location/Type
03:36AM 32.8767 114.0661 293° West  Level Estimated
03:37AM 32.9096 113.9638 291° West  Level Estimated
03:38AM 32.9425 113.8615 291° West  Level Estimated
03:39AM 32.9752 113.7590 291° West  Level Estimated
03:40AM 33.0079 113.6565 291° West  Level Estimated
03:41AM 33.0405 113.5540 291° West  Level Estimated
03:42AM 33.0730 113.4513 291° West  Level Estimated
03:43AM 33.1054 113.3486 291° West  Level Estimated
03:44AM 33.1378 113.2458 291° West  Level Estimated
03:45AM 33.1700 113.1429 291° West  Level Estimated
03:46AM 33.2022 113.0400 291° West  Level Estimated
03:47AM 33.2343 112.9369 290° West  Level Estimated
03:48AM 33.2663 112.8338 290° West  Level Estimated
03:49AM 33.2982 112.7307 290° West  Level Estimated
03:50AM 33.3301 112.6274 290° West  Level Estimated
03:51AM 33.3618 112.5241 290° West  Level Estimated
03:52AM 33.3935 112.4206 290° West  Level Estimated
03:53AM 33.4250 112.3172 290° West  Level Estimated
03:54AM 33.4565 112.2136 290° West  Level Estimated
03:55AM 33.4879 112.1100 290° West  Level Estimated
03:56AM 33.5192 112.0063 290° West  Level Estimated
03:57AM 33.5505 111.9025 290° West  Level Estimated
03:58AM 33.5816 111.7986 290° West  Level Estimated
03:59AM 33.6127 111.6947 290° West  Level Estimated
04:00AM 33.6436 111.5907 290° West  Level Estimated
04:01AM 33.6745 111.4866 290° West  Level Estimated
04:02AM 33.7053 111.3824 290° West  Level Estimated
04:03AM 33.7360 111.2782 290° West  Level Estimated
04:04AM 33.7666 111.1739 289° West  Level Estimated
04:05AM 33.7972 111.0695 289° West  Level Estimated
04:06AM 33.8276 110.9651 289° West  Level Estimated
04:07AM 33.8580 110.8606 289° West  Level Estimated
04:08AM 33.8882 110.7560 289° West  Level Estimated
04:09AM 33.9184 110.6513 289° West  Level Estimated
04:10AM 33.9485 110.5465 289° West  Level Estimated
04:11AM 33.9785 110.4417 289° West  Level Estimated
04:12AM 34.0084 110.3368 289° West  Level Estimated
04:13AM 34.0382 110.2318 289° West  Level Estimated
04:14AM 34.0680 110.1268 289° West  Level Estimated
04:15AM 34.0976 110.0217 289° West  Level Estimated
04:16AM 34.1272 109.9165 289° West  Level Estimated
04:17AM 34.1567 109.8112 289° West  Level Estimated
04:18AM 34.1860 109.7059 289° West  Level Estimated
04:19AM 34.2153 109.6005 289° West  Level Estimated
04:20AM 34.2445 109.4950 289° West  Level Estimated
04:21AM 34.2736 109.3894 288° West  Level Estimated
04:22AM 34.3026 109.2838 288° West  Level Estimated
04:23AM 34.3315 109.1781 288° West  Level Estimated
04:24AM 34.3604 109.0723 288° West  Level Estimated
04:25AM 34.3891 108.9664 288° West  Level Estimated
04:26AM 34.4178 108.8605 288° West  Level Estimated
04:27AM 34.4463 108.7545 288° West  Level Estimated
04:28AM 34.4471 108.7516 288° West  Level Estimated
04:29AM 34.4471 108.7516 121° Southeast  Level Estimated
04:30AM 34.4471 108.7516 121° Southeast  Level Estimated
04:31AM 34.4471 108.7516 121° Southeast  Level Estimated
04:32AM 34.4471 108.7516 121° Southeast  Level Estimated
04:33AM 34.4471 108.7516 121° Southeast  Level Estimated
04:34AM 34.4471 108.7516 121° Southeast  Level Estimated
04:35AM 34.4471 108.7516 121° Southeast  Level Estimated
04:36AM 34.4471 108.7516 121° Southeast  Level Estimated
04:37AM 34.4471 108.7516 121° Southeast  Level Estimated
04:38AM 34.4471 108.7516 121° Southeast  Level Estimated
04:39AM 34.4471 108.7516 121° Southeast  Level Estimated
04:40AM 34.4471 108.7516 121° Southeast  Level Estimated
04:41AM 34.4471 108.7516 121° Southeast  Level Estimated
04:42AM 34.4471 108.7516 121° Southeast  Level Estimated
04:43AM 34.4471 108.7516 121° Southeast  Level Estimated